createdAt,value
2019-01-16T00:00:38.742Z,92.68
2019-01-16T00:03:25.460Z,92.52
2019-01-16T00:06:16.666Z,92.52
2019-01-16T00:08:57.853Z,93.08
2019-01-16T00:11:44.127Z,93.08
2019-01-16T00:14:31.163Z,93.15
2019-01-16T00:17:19.303Z,93.15
2019-01-16T00:20:05.842Z,93.05
2019-01-16T00:22:50.919Z,93.10
2019-01-16T00:25:44.209Z,93.13
2019-01-16T00:28:31.059Z,92.53
2019-01-16T00:31:21.596Z,93.23
2019-01-16T00:34:10.923Z,93.23
2019-01-16T00:36:57.839Z,93.36
2019-01-16T00:39:40.389Z,92.74
2019-01-16T00:42:27.058Z,92.74
2019-01-16T00:45:15.260Z,92.13
2019-01-16T00:47:51.874Z,91.79
2019-01-16T00:50:38.178Z,91.17
2019-01-16T00:53:32.359Z,91.42
2019-01-16T00:56:08.213Z,90.75
2019-01-16T00:59:00.464Z,90.75
2019-01-16T01:02:03.957Z,91.26
2019-01-16T01:04:55.243Z,90.95
2019-01-16T01:07:35.280Z,90.95
2019-01-16T01:10:17.217Z,90.87
2019-01-16T01:13:17.655Z,90.91
2019-01-16T01:15:58.390Z,90.41
2019-01-16T01:18:44.967Z,90.41
2019-01-16T01:21:32.646Z,89.91
2019-01-16T01:24:26.241Z,90.19
2019-01-16T01:27:13.917Z,90.19
2019-01-16T01:29:55.596Z,89.93
2019-01-16T01:32:53.938Z,89.21
2019-01-16T01:35:40.745Z,89.21
2019-01-16T01:38:30.285Z,89.53
2019-01-16T01:41:16.927Z,88.95
2019-01-16T01:43:58.010Z,88.95
2019-01-16T01:46:40.310Z,88.95
2019-01-16T01:49:26.981Z,88.57
2019-01-16T01:52:21.761Z,88.89
2019-01-16T01:55:16.334Z,88.08
2019-01-16T01:57:56.770Z,88.04
2019-01-16T02:00:54.028Z,87.87
2019-01-16T02:03:40.643Z,87.13
2019-01-16T02:06:28.366Z,87.13
2019-01-16T02:09:13.849Z,86.60
2019-01-16T02:12:00.701Z,86.60
2019-01-16T02:14:48.493Z,86.66
2019-01-16T02:17:45.290Z,86.28
2019-01-16T02:20:29.602Z,86.17
2019-01-16T02:23:24.390Z,85.79
2019-01-16T02:26:20.116Z,86.03
2019-01-16T02:29:18.775Z,86.60
2019-01-16T02:32:02.344Z,86.60
2019-01-16T02:34:55.461Z,85.99
2019-01-16T02:37:41.290Z,85.73
2019-01-16T02:40:20.811Z,85.73
2019-01-16T02:43:08.767Z,86.31
2019-01-16T02:46:01.002Z,85.73
2019-01-16T02:48:36.506Z,85.73
2019-01-16T02:51:23.040Z,86.29
2019-01-16T02:54:13.846Z,86.57
2019-01-16T02:56:57.476Z,86.44
2019-01-16T02:59:33.307Z,85.98
2019-01-16T03:02:11.661Z,86.00
2019-01-16T03:04:58.475Z,86.37
2019-01-16T03:07:49.242Z,86.42
2019-01-16T03:10:25.546Z,86.21
2019-01-16T03:13:13.691Z,85.34
2019-01-16T03:16:00.345Z,85.63
2019-01-16T03:18:39.808Z,86.05
2019-01-16T03:21:26.650Z,86.05
2019-01-16T03:24:07.722Z,85.54
2019-01-16T03:26:42.351Z,85.45
2019-01-16T03:29:39.129Z,85.29
2019-01-16T03:32:29.698Z,85.18
2019-01-16T03:35:04.911Z,84.90
2019-01-16T03:37:52.855Z,84.57
2019-01-16T03:40:39.887Z,84.57
2019-01-16T03:43:25.367Z,84.50
2019-01-16T03:46:22.069Z,84.61
2019-01-16T03:49:14.028Z,84.28
2019-01-16T03:51:59.585Z,84.52
2019-01-16T03:55:02.893Z,84.57
2019-01-16T03:57:40.887Z,84.09
2019-01-16T04:00:33.850Z,83.66
2019-01-16T04:03:27.420Z,83.66
2019-01-16T04:06:23.133Z,83.74
2019-01-16T04:09:09.649Z,83.74
2019-01-16T04:11:56.081Z,83.75
2019-01-16T04:14:47.977Z,83.75
2019-01-16T04:17:33.188Z,83.31
2019-01-16T04:20:13.860Z,83.29
2019-01-16T04:23:00.134Z,83.87
2019-01-16T04:25:40.389Z,83.68
2019-01-16T04:28:27.080Z,83.15
2019-01-16T04:31:03.875Z,82.96
2019-01-16T04:33:51.225Z,82.96
2019-01-16T04:36:37.013Z,82.70
2019-01-16T04:39:31.195Z,82.87
2019-01-16T04:42:07.515Z,82.76
2019-01-16T04:44:48.680Z,83.13
2019-01-16T04:47:35.253Z,83.44
2019-01-16T04:50:16.839Z,82.97
2019-01-16T04:53:17.368Z,82.97
2019-01-16T04:56:03.517Z,82.76
2019-01-16T04:58:49.723Z,82.76
2019-01-16T05:01:36.670Z,82.65
2019-01-16T05:04:24.099Z,82.65
2019-01-16T05:07:10.895Z,82.81
2019-01-16T05:10:17.306Z,83.23
2019-01-16T05:12:55.490Z,82.44
2019-01-16T05:15:41.811Z,83.08
2019-01-16T05:18:32.797Z,83.08
2019-01-16T05:21:21.225Z,82.47
2019-01-16T05:24:09.798Z,82.14
2019-01-16T05:26:49.606Z,81.69
2019-01-16T05:29:37.310Z,81.74
2019-01-16T05:32:30.213Z,81.74
2019-01-16T05:35:16.732Z,82.50
2019-01-16T05:38:03.557Z,81.71
2019-01-16T05:40:43.253Z,81.76
2019-01-16T05:43:34.417Z,81.32
2019-01-16T05:46:28.287Z,81.32
2019-01-16T05:49:18.821Z,81.62
2019-01-16T05:52:04.103Z,81.90
2019-01-16T05:54:50.562Z,81.56
2019-01-16T05:57:47.426Z,81.56
2019-01-16T06:00:53.183Z,82.16
2019-01-16T06:03:50.990Z,81.95
2019-01-16T06:06:41.778Z,81.69
2019-01-16T06:09:38.305Z,82.20
2019-01-16T06:12:24.884Z,81.92
2019-01-16T06:15:08.587Z,82.46
2019-01-16T06:17:55.342Z,82.46
2019-01-16T06:20:41.688Z,82.01
2019-01-16T06:27:20.691Z,82.15
2019-01-16T06:30:09.247Z,82.56
2019-01-16T06:32:56.977Z,81.76
2019-01-16T06:35:58.635Z,81.76
2019-01-16T06:38:46.578Z,81.75
2019-01-16T06:41:31.512Z,82.18
2019-01-16T06:44:16.103Z,82.71
2019-01-16T06:46:55.539Z,82.71
2019-01-16T06:49:42.353Z,82.34
2019-01-16T06:52:25.475Z,82.18
2019-01-16T06:55:11.778Z,82.18
2019-01-16T06:58:06.266Z,81.95
2019-01-16T07:00:48.472Z,81.95
2019-01-16T07:03:36.407Z,82.19
2019-01-16T07:06:23.056Z,81.66
2019-01-16T07:09:20.935Z,81.66
2019-01-16T07:12:14.326Z,81.88
2019-01-16T07:15:00.641Z,81.98
2019-01-16T07:17:40.096Z,81.99
2019-01-16T07:20:22.603Z,81.99
2019-01-16T07:23:09.335Z,81.99
2019-01-16T07:25:55.901Z,81.99
2019-01-16T07:28:42.400Z,81.98
2019-01-16T07:31:40.873Z,81.80
2019-01-16T07:34:17.170Z,81.80
2019-01-16T07:37:13.854Z,81.90
2019-01-16T07:40:10.603Z,81.90
2019-01-16T07:42:53.144Z,81.78
2019-01-16T07:45:39.004Z,81.78
2019-01-16T07:48:36.033Z,81.58
2019-01-16T07:51:14.636Z,82.06
2019-01-16T07:54:11.860Z,82.06
2019-01-16T07:56:50.403Z,82.14
2019-01-16T07:59:41.213Z,81.57
2019-01-16T08:02:38.364Z,82.07
2019-01-16T08:05:28.865Z,82.07
2019-01-16T08:08:15.468Z,83.97
2019-01-16T08:11:02.196Z,81.60
2019-01-16T08:13:45.098Z,81.76
2019-01-16T08:16:42.458Z,82.16
2019-01-16T08:19:30.535Z,82.00
2019-01-16T08:22:21.607Z,82.08
2019-01-16T08:25:11.138Z,82.56
2019-01-16T08:27:57.903Z,82.62
2019-01-16T08:30:55.259Z,83.03
2019-01-16T08:33:37.232Z,83.03
2019-01-16T08:36:20.227Z,83.03
2019-01-16T08:39:11.053Z,82.76
2019-01-16T08:42:04.859Z,82.76
2019-01-16T08:44:42.208Z,83.00
2019-01-16T08:47:28.856Z,82.92
2019-01-16T08:50:10.136Z,83.36
2019-01-16T08:52:56.861Z,83.36
2019-01-16T08:55:43.757Z,83.56
2019-01-16T08:58:28.010Z,83.66
2019-01-16T09:01:14.121Z,83.66
2019-01-16T09:04:00.043Z,83.94
2019-01-16T09:06:50.488Z,83.94
2019-01-16T09:09:29.168Z,84.01
2019-01-16T09:12:16.227Z,83.78
2019-01-16T09:15:09.072Z,83.71
2019-01-16T09:17:59.584Z,83.71
2019-01-16T09:20:46.335Z,83.40
2019-01-16T09:23:43.179Z,82.97
2019-01-16T09:26:30.828Z,82.41
2019-01-16T09:29:23.493Z,82.41
2019-01-16T09:32:15.860Z,82.72
2019-01-16T09:35:03.653Z,83.08
2019-01-16T09:37:49.979Z,83.50
2019-01-16T09:40:31.685Z,83.50
2019-01-16T09:43:14.034Z,83.48
2019-01-16T09:46:02.033Z,83.48
2019-01-16T09:48:52.567Z,82.94
2019-01-16T09:51:43.949Z,83.39
2019-01-16T09:54:33.728Z,83.43
2019-01-16T09:57:21.682Z,83.47
2019-01-16T10:00:08.683Z,83.09
2019-01-16T10:02:56.380Z,83.09
2019-01-16T10:05:36.875Z,83.20
2019-01-16T10:08:23.592Z,83.44
2019-01-16T10:11:22.233Z,83.67
2019-01-16T10:14:03.658Z,83.56
2019-01-16T10:16:44.170Z,84.84
2019-01-16T10:19:30.939Z,85.38
2019-01-16T10:22:14.928Z,85.01
2019-01-16T10:24:51.861Z,85.69
2019-01-16T10:27:40.878Z,85.69
2019-01-16T10:30:35.771Z,85.66
2019-01-16T10:33:14.241Z,86.17
2019-01-16T10:35:49.655Z,86.17
2019-01-16T10:38:56.020Z,86.58
2019-01-16T10:41:58.795Z,86.87
2019-01-16T10:44:33.983Z,86.87
2019-01-16T10:47:24.469Z,87.23
2019-01-16T10:50:11.049Z,87.45
2019-01-16T10:52:57.603Z,87.58
2019-01-16T10:55:51.770Z,87.29
2019-01-16T10:58:38.480Z,87.28
2019-01-16T11:01:26.522Z,87.28
2019-01-16T11:04:14.542Z,86.82
2019-01-16T11:07:11.874Z,86.10
2019-01-16T11:09:58.757Z,86.10
2019-01-16T11:12:46.734Z,85.26
2019-01-16T11:15:23.650Z,85.11
2019-01-16T11:18:09.234Z,85.03
2019-01-16T11:21:00.043Z,85.02
2019-01-16T11:23:58.522Z,84.45
2019-01-16T11:26:40.215Z,84.33
2019-01-16T11:29:30.203Z,84.30
2019-01-16T11:32:16.706Z,84.30
2019-01-16T11:35:00.341Z,84.10
2019-01-16T11:37:47.076Z,83.96
2019-01-16T11:40:44.047Z,84.37
2019-01-16T11:43:31.119Z,83.96
2019-01-16T11:46:22.127Z,84.63
2019-01-16T11:49:08.373Z,85.27
2019-01-16T11:52:11.728Z,85.27
2019-01-16T11:54:58.427Z,85.39
2019-01-16T11:57:34.600Z,85.91
2019-01-16T12:00:29.192Z,85.78
2019-01-16T12:03:17.114Z,85.48
2019-01-16T12:06:03.840Z,85.29
2019-01-16T12:08:45.288Z,85.05
2019-01-16T12:11:30.499Z,84.75
2019-01-16T12:14:25.093Z,83.71
2019-01-16T12:17:24.611Z,83.77
2019-01-16T12:20:21.856Z,82.91
2019-01-16T12:23:15.505Z,82.91
2019-01-16T12:25:53.379Z,82.63
2019-01-16T12:28:41.073Z,82.63
2019-01-16T12:31:27.569Z,82.48
2019-01-16T12:34:30.567Z,82.45
2019-01-16T12:37:17.462Z,82.45
2019-01-16T12:40:23.443Z,81.71
2019-01-16T12:43:14.708Z,81.75
2019-01-16T12:45:53.885Z,81.64
2019-01-16T12:48:40.800Z,81.64
2019-01-16T12:51:33.721Z,82.46
2019-01-16T12:54:30.177Z,82.34
2019-01-16T12:57:24.546Z,82.34
2019-01-16T13:00:12.519Z,83.06
2019-01-16T13:02:52.059Z,83.06
2019-01-16T13:05:35.239Z,83.10
2019-01-16T13:08:21.153Z,84.03
2019-01-16T13:11:07.933Z,84.03
2019-01-16T13:13:56.844Z,83.16
2019-01-16T13:16:57.074Z,83.22
2019-01-16T13:19:45.318Z,83.09
2019-01-16T13:22:37.763Z,82.68
2019-01-16T13:25:24.535Z,82.68
2019-01-16T13:28:26.141Z,83.12
2019-01-16T13:31:13.762Z,83.12
2019-01-16T13:33:55.202Z,83.06
2019-01-16T13:36:49.017Z,83.17
2019-01-16T13:39:35.835Z,82.79
2019-01-16T13:42:32.295Z,83.89
2019-01-16T13:45:19.963Z,83.89
2019-01-16T13:48:06.815Z,83.44
2019-01-16T13:50:53.523Z,83.57
2019-01-16T13:53:53.544Z,83.44
2019-01-16T13:56:37.384Z,84.00
2019-01-16T13:59:43.858Z,84.03
2019-01-16T14:02:34.764Z,83.58
2019-01-16T14:05:31.539Z,83.58
2019-01-16T14:08:08.024Z,84.02
2019-01-16T14:10:48.506Z,84.29
2019-01-16T14:13:42.186Z,84.29
2019-01-16T14:16:26.576Z,84.65
2019-01-16T14:19:09.340Z,84.58
2019-01-16T14:21:55.040Z,84.85
2019-01-16T14:24:35.797Z,84.85
2019-01-16T14:27:42.215Z,84.17
2019-01-16T14:30:31.920Z,84.17
2019-01-16T14:33:13.378Z,84.31
2019-01-16T14:36:04.192Z,84.37
2019-01-16T14:38:45.475Z,84.37
2019-01-16T14:41:37.297Z,84.80
2019-01-16T14:44:24.008Z,85.10
2019-01-16T14:47:23.620Z,85.69
2019-01-16T14:50:03.467Z,85.89
2019-01-16T14:52:48.900Z,85.89
2019-01-16T14:55:32.046Z,85.85
2019-01-16T14:58:37.798Z,86.56
2019-01-16T15:01:31.802Z,86.56
2019-01-16T15:04:24.347Z,86.60
2019-01-16T15:07:10.919Z,86.60
2019-01-16T15:09:57.686Z,86.12
2019-01-16T15:12:53.792Z,86.12
2019-01-16T15:15:45.731Z,86.10
2019-01-16T15:18:32.228Z,86.34
2019-01-16T15:21:20.167Z,86.34
2019-01-16T15:24:23.149Z,85.88
2019-01-16T15:27:13.759Z,86.09
2019-01-16T15:30:08.257Z,85.57
2019-01-16T15:32:47.334Z,85.88
2019-01-16T15:35:26.645Z,85.49
2019-01-16T15:38:06.215Z,85.47
2019-01-16T15:40:52.544Z,86.49
2019-01-16T15:43:30.690Z,86.49
2019-01-16T15:46:19.321Z,86.63
2019-01-16T15:49:06.343Z,86.85
2019-01-16T15:51:52.947Z,87.63
2019-01-16T15:54:48.288Z,87.63
2019-01-16T15:57:48.598Z,88.11
2019-01-16T16:00:32.939Z,88.11
2019-01-16T16:03:15.822Z,87.82
2019-01-16T16:06:09.492Z,87.89
2019-01-16T16:08:56.138Z,87.28
2019-01-16T16:11:32.757Z,87.28
2019-01-16T16:14:11.187Z,87.60
2019-01-16T16:17:08.588Z,87.53
2019-01-16T16:19:55.600Z,87.55
2019-01-16T16:22:38.164Z,87.63
2019-01-16T16:25:28.404Z,87.49
2019-01-16T16:28:15.420Z,87.18
2019-01-16T16:30:57.010Z,86.93
2019-01-16T16:33:43.821Z,86.93
2019-01-16T16:36:34.596Z,86.80
2019-01-16T16:39:17.035Z,86.42
2019-01-16T16:42:02.823Z,86.42
2019-01-16T16:44:42.056Z,86.81
2019-01-16T16:47:33.165Z,87.33
2019-01-16T16:50:19.657Z,87.33
2019-01-16T16:53:06.216Z,86.55
2019-01-16T16:56:10.710Z,86.74
2019-01-16T16:58:57.708Z,85.81
2019-01-16T17:01:48.730Z,85.81
2019-01-16T17:04:29.413Z,85.77
2019-01-16T17:07:35.766Z,85.23
2019-01-16T17:10:13.225Z,85.48
2019-01-16T17:12:59.848Z,85.48
2019-01-16T17:16:03.264Z,84.82
2019-01-16T17:19:00.568Z,84.23
2019-01-16T17:21:44.055Z,84.03
2019-01-16T17:24:43.750Z,84.79
2019-01-16T17:27:25.561Z,84.79
2019-01-16T17:30:16.680Z,84.53
2019-01-16T17:33:01.949Z,85.06
2019-01-16T17:35:42.168Z,85.06
2019-01-16T17:38:27.053Z,84.98
2019-01-16T17:41:20.953Z,84.72
2019-01-16T17:44:02.337Z,84.58
2019-01-16T17:46:50.274Z,84.10
2019-01-16T17:49:36.898Z,84.10
2019-01-16T17:52:31.174Z,84.49
2019-01-16T17:55:34.248Z,84.31
2019-01-16T17:58:33.258Z,84.57
2019-01-16T18:01:27.057Z,84.38
2019-01-16T18:04:30.434Z,84.56
2019-01-16T18:07:17.346Z,85.06
2019-01-16T18:10:17.038Z,84.59
2019-01-16T18:12:58.753Z,84.59
2019-01-16T18:15:49.266Z,84.59
2019-01-16T18:18:35.963Z,84.80
2019-01-16T18:21:22.569Z,85.08
2019-01-16T18:24:11.941Z,85.16
2019-01-16T18:26:59.425Z,85.52
2019-01-16T18:29:51.060Z,85.52
2019-01-16T18:32:39.131Z,84.72
2019-01-16T18:35:16.999Z,84.48
2019-01-16T18:38:04.673Z,84.11
2019-01-16T18:40:51.580Z,84.11
2019-01-16T18:43:31.325Z,84.08
2019-01-16T18:46:18.027Z,84.08
2019-01-16T18:49:05.053Z,84.05
2019-01-16T18:51:52.789Z,84.14
2019-01-16T18:54:39.799Z,84.63
2019-01-16T18:57:30.813Z,84.27
2019-01-16T19:00:17.373Z,84.27
2019-01-16T19:02:59.719Z,84.57
2019-01-16T19:05:37.318Z,84.73
2019-01-16T19:08:37.276Z,84.57
2019-01-16T19:11:16.622Z,84.57
2019-01-16T19:14:03.388Z,85.03
2019-01-16T19:16:50.031Z,84.82
2019-01-16T19:19:43.873Z,84.35
2019-01-16T19:22:19.884Z,84.51
2019-01-16T19:25:05.409Z,84.51
2019-01-16T19:28:00.571Z,84.16
2019-01-16T19:30:47.429Z,84.19
2019-01-16T19:33:34.657Z,84.95
2019-01-16T19:36:22.692Z,84.93
2019-01-16T19:39:09.705Z,85.22
2019-01-16T19:41:56.150Z,85.22
2019-01-16T19:44:39.953Z,85.11
2019-01-16T19:47:26.397Z,85.40
2019-01-16T19:50:26.519Z,86.01
2019-01-16T19:53:05.506Z,86.18
2019-01-16T19:55:59.382Z,87.13
2019-01-16T19:58:46.192Z,86.88
2019-01-16T20:01:52.273Z,87.11
2019-01-16T20:04:58.318Z,87.76
2019-01-16T20:07:42.165Z,87.44
2019-01-16T20:10:36.987Z,87.33
2019-01-16T20:13:24.955Z,87.62
2019-01-16T20:16:15.720Z,87.43
2019-01-16T20:19:01.764Z,87.56
2019-01-16T20:21:42.053Z,87.48
2019-01-16T20:24:22.412Z,87.45
2019-01-16T20:27:08.509Z,87.53
2019-01-16T20:29:55.354Z,88.12
2019-01-16T20:32:32.381Z,88.15
2019-01-16T20:35:22.955Z,87.89
2019-01-16T20:38:15.139Z,88.21
2019-01-16T20:41:01.739Z,88.18
2019-01-16T20:43:52.860Z,88.19
2019-01-16T20:46:34.347Z,88.24
2019-01-16T20:49:22.291Z,88.22
2019-01-16T20:52:22.389Z,88.21
2019-01-16T20:55:22.300Z,88.08
2019-01-16T20:58:12.771Z,87.75
2019-01-16T21:01:06.913Z,88.29
2019-01-16T21:03:47.933Z,87.90
2019-01-16T21:06:30.398Z,88.04
2019-01-16T21:09:15.215Z,87.92
2019-01-16T21:12:03.449Z,88.06
2019-01-16T21:14:42.343Z,88.51
2019-01-16T21:17:32.917Z,89.04
2019-01-16T21:20:19.943Z,88.65
2019-01-16T21:23:02.049Z,88.65
2019-01-16T21:26:08.638Z,87.89
2019-01-16T21:28:47.542Z,86.74
2019-01-16T21:31:38.047Z,86.49
2019-01-16T21:34:24.753Z,85.23
2019-01-16T21:37:25.096Z,85.44
2019-01-16T21:40:21.791Z,85.93
2019-01-16T21:43:15.363Z,86.62
2019-01-16T21:46:01.904Z,86.43
2019-01-16T21:48:49.522Z,86.01
2019-01-16T21:51:36.550Z,86.40
2019-01-16T21:54:18.573Z,86.78
2019-01-16T21:57:01.743Z,86.62
2019-01-16T22:00:02.118Z,86.89
2019-01-16T22:02:51.848Z,86.79
2019-01-16T22:05:38.255Z,86.10
2019-01-16T22:08:25.709Z,85.85
2019-01-16T22:11:19.482Z,85.75
2019-01-16T22:14:05.837Z,85.56
2019-01-16T22:16:42.461Z,86.01
2019-01-16T22:19:29.179Z,86.16
2019-01-16T22:22:06.864Z,86.42
2019-01-16T22:24:51.998Z,86.56
2019-01-16T22:27:46.129Z,86.59
2019-01-16T22:30:34.470Z,86.83
2019-01-16T22:33:22.112Z,86.73
2019-01-16T22:36:04.707Z,86.81
2019-01-16T22:38:45.736Z,86.51
2019-01-16T22:41:32.502Z,85.78
2019-01-16T22:44:30.779Z,86.18
2019-01-16T22:47:15.805Z,85.87
2019-01-16T22:50:10.139Z,85.42
2019-01-16T22:53:00.654Z,85.64
2019-01-16T22:55:52.313Z,85.41
2019-01-16T22:58:31.181Z,84.94
2019-01-16T23:01:15.173Z,84.33
2019-01-16T23:04:02.035Z,84.68
2019-01-16T23:06:49.775Z,84.48
2019-01-16T23:09:44.879Z,84.16
2019-01-16T23:12:24.214Z,83.99
2019-01-16T23:15:26.600Z,83.98
2019-01-16T23:18:13.581Z,83.71
2019-01-16T23:21:01.299Z,83.37
2019-01-16T23:23:49.843Z,83.89
2019-01-16T23:26:36.400Z,83.59
2019-01-16T23:29:20.425Z,83.57
2019-01-16T23:32:02.622Z,83.46
2019-01-16T23:34:48.996Z,83.73
2019-01-16T23:37:35.599Z,83.38
2019-01-16T23:40:22.724Z,83.57
2019-01-16T23:43:09.083Z,83.90
2019-01-16T23:45:55.687Z,83.97
2019-01-16T23:48:37.046Z,84.15
2019-01-16T23:51:23.474Z,84.55
2019-01-16T23:54:24.072Z,84.51
2019-01-16T23:57:10.574Z,84.75
